sensor_id;sensor_type;location;lat;lon;timestamp;P1;durP1;ratioP1;P2;durP2;ratioP2
22184;SDS011;11258;52.516;13.318;2024-02-26T00:00:00;8.13;;;3.97;;
22184;SDS011;11258;52.516;13.318;2024-02-26T00:02:26;6.67;;;4.27;;
22184;SDS011;11258;52.516;13.318;2024-02-26T00:04:52;8.07;;;3.63;;
22184;SDS011;11258;52.516;13.318;2024-02-26T00:07:18;6.50;;;3.70;;
22184;SDS011;11258;52.516;13.318;2024-02-26T00:09:44;8.77;;;4.10;;
22184;SDS011;11258;52.516;13.318;2024-02-26T00:12:10;7.37;;;3.63;;
22184;SDS011;11258;52.516;13.318;2024-02-26T00:14:36;9.37;;;4.10;;
22184;SDS011;11258;52.516;13.318;2024-02-26T00:17:02;6.97;;;4.40;;
22184;SDS011;11258;52.516;13.318;2024-02-26T00:19:28;5.33;;;3.77;;
22184;SDS011;11258;52.516;13.318;2024-02-26T00:21:54;7.37;;;3.97;;
22184;SDS011;11258;52.516;13.318;2024-02-26T00:24:20;7.83;;;4.30;;
22184;SDS011;11258;52.516;13.318;2024-02-26T00:26:46;8.67;;;4.37;;
22184;SDS011;11258;52.516;13.318;2024-02-26T00:29:18;6.93;;;3.90;;
22184;SDS011;11258;52.516;13.318;2024-02-26T00:31:44;7.40;;;4.20;;
22184;SDS011;11258;52.516;13.318;2024-02-26T00:34:10;12.70;;;4.90;;
22184;SDS011;11258;52.516;13.318;2024-02-26T00:36:36;7.73;;;4.63;;
22184;SDS011;11258;52.516;13.318;2024-02-26T00:39:02;9.80;;;5.10;;
22184;SDS011;11258;52.516;13.318;2024-02-26T00:41:28;6.97;;;4.20;;
22184;SDS011;11258;52.516;13.318;2024-02-26T00:43:54;11.13;;;4.77;;
22184;SDS011;11258;52.516;13.318;2024-02-26T00:46:20;10.20;;;5.03;;
22184;SDS011;11258;52.516;13.318;2024-02-26T00:48:46;15.30;;;6.07;;
22184;SDS011;11258;52.516;13.318;2024-02-26T00:51:12;8.17;;;5.27;;
22184;SDS011;11258;52.516;13.318;2024-02-26T00:53:38;10.20;;;5.83;;
22184;SDS011;11258;52.516;13.318;2024-02-26T00:56:04;10.73;;;5.97;;
22184;SDS011;11258;52.516;13.318;2024-02-26T00:58:31;9.37;;;6.10;;
22184;SDS011;11258;52.516;13.318;2024-02-26T01:00:57;11.23;;;6.20;;
22184;SDS011;11258;52.516;13.318;2024-02-26T01:03:24;12.83;;;6.73;;
22184;SDS011;11258;52.516;13.318;2024-02-26T01:05:50;10.93;;;5.87;;
22184;SDS011;11258;52.516;13.318;2024-02-26T01:08:16;9.30;;;5.47;;
22184;SDS011;11258;52.516;13.318;2024-02-26T01:10:42;10.20;;;6.03;;
22184;SDS011;11258;52.516;13.318;2024-02-26T01:13:08;12.63;;;6.07;;
22184;SDS011;11258;52.516;13.318;2024-02-26T01:15:34;11.67;;;6.60;;
22184;SDS011;11258;52.516;13.318;2024-02-26T01:18:00;9.70;;;5.30;;
22184;SDS011;11258;52.516;13.318;2024-02-26T01:20:26;10.07;;;6.13;;
22184;SDS011;11258;52.516;13.318;2024-02-26T01:22:52;11.53;;;7.40;;
22184;SDS011;11258;52.516;13.318;2024-02-26T01:25:18;10.93;;;6.23;;
22184;SDS011;11258;52.516;13.318;2024-02-26T01:27:44;11.90;;;6.30;;
22184;SDS011;11258;52.516;13.318;2024-02-26T01:30:11;11.90;;;6.33;;
22184;SDS011;11258;52.516;13.318;2024-02-26T01:32:37;10.00;;;6.03;;
22184;SDS011;11258;52.516;13.318;2024-02-26T01:35:03;12.97;;;6.53;;
22184;SDS011;11258;52.516;13.318;2024-02-26T01:37:30;13.70;;;7.03;;
22184;SDS011;11258;52.516;13.318;2024-02-26T01:39:56;10.40;;;6.57;;
22184;SDS011;11258;52.516;13.318;2024-02-26T01:42:22;9.97;;;6.07;;
22184;SDS011;11258;52.516;13.318;2024-02-26T01:44:48;9.20;;;5.83;;
22184;SDS011;11258;52.516;13.318;2024-02-26T01:47:14;13.17;;;7.03;;
22184;SDS011;11258;52.516;13.318;2024-02-26T01:49:40;10.23;;;6.37;;
22184;SDS011;11258;52.516;13.318;2024-02-26T01:52:06;9.83;;;5.90;;
22184;SDS011;11258;52.516;13.318;2024-02-26T01:54:34;11.97;;;6.20;;
22184;SDS011;11258;52.516;13.318;2024-02-26T01:57:00;9.33;;;5.43;;
22184;SDS011;11258;52.516;13.318;2024-02-26T01:59:27;11.63;;;7.23;;
22184;SDS011;11258;52.516;13.318;2024-02-26T02:01:54;13.27;;;6.43;;
22184;SDS011;11258;52.516;13.318;2024-02-26T02:04:21;12.30;;;6.63;;
22184;SDS011;11258;52.516;13.318;2024-02-26T02:06:48;14.20;;;6.10;;
22184;SDS011;11258;52.516;13.318;2024-02-26T02:09:14;10.10;;;6.20;;
22184;SDS011;11258;52.516;13.318;2024-02-26T02:11:40;11.00;;;6.23;;
22184;SDS011;11258;52.516;13.318;2024-02-26T02:14:07;9.03;;;5.30;;
22184;SDS011;11258;52.516;13.318;2024-02-26T02:16:33;9.63;;;6.40;;
22184;SDS011;11258;52.516;13.318;2024-02-26T02:18:59;11.37;;;7.07;;
22184;SDS011;11258;52.516;13.318;2024-02-26T02:21:25;12.23;;;6.70;;
22184;SDS011;11258;52.516;13.318;2024-02-26T02:23:51;10.90;;;5.53;;
22184;SDS011;11258;52.516;13.318;2024-02-26T02:26:17;8.97;;;5.90;;
22184;SDS011;11258;52.516;13.318;2024-02-26T02:28:44;14.43;;;6.37;;
22184;SDS011;11258;52.516;13.318;2024-02-26T02:31:11;10.20;;;5.73;;
22184;SDS011;11258;52.516;13.318;2024-02-26T02:33:37;9.77;;;5.77;;
22184;SDS011;11258;52.516;13.318;2024-02-26T02:36:03;11.33;;;6.20;;
22184;SDS011;11258;52.516;13.318;2024-02-26T02:38:29;7.93;;;5.63;;
22184;SDS011;11258;52.516;13.318;2024-02-26T02:40:56;8.77;;;5.33;;
22184;SDS011;11258;52.516;13.318;2024-02-26T02:43:23;9.63;;;5.17;;
22184;SDS011;11258;52.516;13.318;2024-02-26T02:45:49;6.60;;;4.60;;
22184;SDS011;11258;52.516;13.318;2024-02-26T02:48:15;7.33;;;4.63;;
22184;SDS011;11258;52.516;13.318;2024-02-26T02:50:41;8.43;;;4.93;;
22184;SDS011;11258;52.516;13.318;2024-02-26T02:53:07;7.73;;;4.50;;
22184;SDS011;11258;52.516;13.318;2024-02-26T02:55:33;6.90;;;4.13;;
22184;SDS011;11258;52.516;13.318;2024-02-26T02:57:59;8.83;;;4.57;;
22184;SDS011;11258;52.516;13.318;2024-02-26T03:00:25;6.60;;;4.30;;
22184;SDS011;11258;52.516;13.318;2024-02-26T03:02:51;5.70;;;3.77;;
22184;SDS011;11258;52.516;13.318;2024-02-26T03:05:17;6.93;;;4.57;;
22184;SDS011;11258;52.516;13.318;2024-02-26T03:07:43;9.30;;;4.47;;
22184;SDS011;11258;52.516;13.318;2024-02-26T03:10:09;5.97;;;4.23;;
22184;SDS011;11258;52.516;13.318;2024-02-26T03:12:35;6.70;;;3.90;;
22184;SDS011;11258;52.516;13.318;2024-02-26T03:15:01;6.57;;;4.23;;
22184;SDS011;11258;52.516;13.318;2024-02-26T03:17:30;5.60;;;3.77;;
22184;SDS011;11258;52.516;13.318;2024-02-26T03:19:56;7.73;;;4.33;;
22184;SDS011;11258;52.516;13.318;2024-02-26T03:22:22;6.03;;;3.40;;
22184;SDS011;11258;52.516;13.318;2024-02-26T03:24:48;6.27;;;4.10;;
22184;SDS011;11258;52.516;13.318;2024-02-26T03:27:14;4.73;;;3.70;;
22184;SDS011;11258;52.516;13.318;2024-02-26T03:29:41;9.10;;;4.03;;
22184;SDS011;11258;52.516;13.318;2024-02-26T03:32:07;8.40;;;4.20;;
22184;SDS011;11258;52.516;13.318;2024-02-26T03:34:33;4.50;;;3.47;;
22184;SDS011;11258;52.516;13.318;2024-02-26T03:36:59;7.03;;;3.33;;
22184;SDS011;11258;52.516;13.318;2024-02-26T03:39:26;7.80;;;4.43;;
22184;SDS011;11258;52.516;13.318;2024-02-26T03:41:53;4.00;;;3.53;;
22184;SDS011;11258;52.516;13.318;2024-02-26T03:44:19;5.60;;;3.60;;
22184;SDS011;11258;52.516;13.318;2024-02-26T03:46:45;6.13;;;3.80;;
22184;SDS011;11258;52.516;13.318;2024-02-26T03:49:11;6.30;;;3.53;;
22184;SDS011;11258;52.516;13.318;2024-02-26T03:51:38;7.53;;;3.73;;
22184;SDS011;11258;52.516;13.318;2024-02-26T03:54:04;8.60;;;3.70;;
22184;SDS011;11258;52.516;13.318;2024-02-26T03:56:30;5.40;;;3.63;;
22184;SDS011;11258;52.516;13.318;2024-02-26T03:58:56;8.50;;;4.00;;
22184;SDS011;11258;52.516;13.318;2024-02-26T04:01:24;4.73;;;3.03;;
22184;SDS011;11258;52.516;13.318;2024-02-26T04:03:50;5.00;;;3.07;;
22184;SDS011;11258;52.516;13.318;2024-02-26T04:06:17;7.73;;;3.70;;
22184;SDS011;11258;52.516;13.318;2024-02-26T04:08:45;5.17;;;3.47;;
22184;SDS011;11258;52.516;13.318;2024-02-26T04:11:11;6.87;;;4.00;;
22184;SDS011;11258;52.516;13.318;2024-02-26T04:13:38;5.13;;;3.83;;
22184;SDS011;11258;52.516;13.318;2024-02-26T04:16:07;5.53;;;3.73;;
22184;SDS011;11258;52.516;13.318;2024-02-26T04:18:33;4.53;;;3.43;;
22184;SDS011;11258;52.516;13.318;2024-02-26T04:20:59;7.33;;;3.83;;
22184;SDS011;11258;52.516;13.318;2024-02-26T04:23:25;5.47;;;4.03;;
22184;SDS011;11258;52.516;13.318;2024-02-26T04:25:51;6.63;;;3.97;;
22184;SDS011;11258;52.516;13.318;2024-02-26T04:28:18;6.43;;;3.70;;
22184;SDS011;11258;52.516;13.318;2024-02-26T04:30:45;10.40;;;4.53;;
22184;SDS011;11258;52.516;13.318;2024-02-26T04:33:11;7.37;;;3.97;;
22184;SDS011;11258;52.516;13.318;2024-02-26T04:35:37;5.13;;;3.83;;
22184;SDS011;11258;52.516;13.318;2024-02-26T04:38:03;5.57;;;4.17;;
22184;SDS011;11258;52.516;13.318;2024-02-26T04:40:29;6.27;;;4.13;;
22184;SDS011;11258;52.516;13.318;2024-02-26T04:42:55;7.87;;;3.90;;
22184;SDS011;11258;52.516;13.318;2024-02-26T04:45:22;5.33;;;4.00;;
22184;SDS011;11258;52.516;13.318;2024-02-26T04:47:48;8.90;;;4.67;;
22184;SDS011;11258;52.516;13.318;2024-02-26T04:50:14;7.57;;;4.27;;
22184;SDS011;11258;52.516;13.318;2024-02-26T04:52:40;5.47;;;4.33;;
22184;SDS011;11258;52.516;13.318;2024-02-26T04:55:07;7.70;;;5.03;;
22184;SDS011;11258;52.516;13.318;2024-02-26T04:57:33;7.17;;;4.73;;
22184;SDS011;11258;52.516;13.318;2024-02-26T04:59:59;9.47;;;5.50;;
22184;SDS011;11258;52.516;13.318;2024-02-26T05:02:25;6.10;;;4.87;;
22184;SDS011;11258;52.516;13.318;2024-02-26T05:04:51;5.10;;;4.50;;
22184;SDS011;11258;52.516;13.318;2024-02-26T05:07:17;6.67;;;4.50;;
22184;SDS011;11258;52.516;13.318;2024-02-26T05:09:43;9.23;;;4.93;;
22184;SDS011;11258;52.516;13.318;2024-02-26T05:12:09;7.37;;;5.13;;
22184;SDS011;11258;52.516;13.318;2024-02-26T05:14:35;5.63;;;4.53;;
22184;SDS011;11258;52.516;13.318;2024-02-26T05:17:01;9.43;;;4.83;;
22184;SDS011;11258;52.516;13.318;2024-02-26T05:19:27;6.63;;;4.30;;
22184;SDS011;11258;52.516;13.318;2024-02-26T05:21:53;8.97;;;5.20;;
22184;SDS011;11258;52.516;13.318;2024-02-26T05:24:19;16.23;;;5.70;;
22184;SDS011;11258;52.516;13.318;2024-02-26T05:26:47;6.93;;;4.93;;
22184;SDS011;11258;52.516;13.318;2024-02-26T05:29:13;8.47;;;4.90;;
22184;SDS011;11258;52.516;13.318;2024-02-26T05:31:42;7.40;;;5.10;;
22184;SDS011;11258;52.516;13.318;2024-02-26T05:34:08;8.53;;;5.10;;
22184;SDS011;11258;52.516;13.318;2024-02-26T05:36:34;10.30;;;5.40;;
22184;SDS011;11258;52.516;13.318;2024-02-26T05:39:00;7.60;;;4.77;;
22184;SDS011;11258;52.516;13.318;2024-02-26T05:41:26;9.67;;;5.37;;
22184;SDS011;11258;52.516;13.318;2024-02-26T05:43:52;9.23;;;5.60;;
22184;SDS011;11258;52.516;13.318;2024-02-26T05:46:19;9.00;;;5.97;;
22184;SDS011;11258;52.516;13.318;2024-02-26T05:48:50;7.57;;;5.07;;
22184;SDS011;11258;52.516;13.318;2024-02-26T05:51:17;9.07;;;5.23;;
22184;SDS011;11258;52.516;13.318;2024-02-26T05:53:43;9.27;;;5.83;;
22184;SDS011;11258;52.516;13.318;2024-02-26T05:56:09;10.23;;;6.47;;
22184;SDS011;11258;52.516;13.318;2024-02-26T05:58:35;10.07;;;5.63;;
22184;SDS011;11258;52.516;13.318;2024-02-26T06:01:01;8.93;;;5.60;;
22184;SDS011;11258;52.516;13.318;2024-02-26T06:03:27;9.90;;;5.53;;
22184;SDS011;11258;52.516;13.318;2024-02-26T06:05:53;10.73;;;5.77;;
22184;SDS011;11258;52.516;13.318;2024-02-26T06:08:19;9.20;;;5.43;;
22184;SDS011;11258;52.516;13.318;2024-02-26T06:10:45;9.23;;;5.53;;
22184;SDS011;11258;52.516;13.318;2024-02-26T06:13:11;8.90;;;5.87;;
22184;SDS011;11258;52.516;13.318;2024-02-26T06:15:37;9.33;;;5.87;;
22184;SDS011;11258;52.516;13.318;2024-02-26T06:18:03;11.63;;;5.70;;
22184;SDS011;11258;52.516;13.318;2024-02-26T06:20:29;10.90;;;5.57;;
22184;SDS011;11258;52.516;13.318;2024-02-26T06:22:55;11.07;;;6.53;;
22184;SDS011;11258;52.516;13.318;2024-02-26T06:25:21;13.80;;;6.80;;
22184;SDS011;11258;52.516;13.318;2024-02-26T06:27:47;12.33;;;6.33;;
22184;SDS011;11258;52.516;13.318;2024-02-26T06:30:13;8.70;;;5.80;;
22184;SDS011;11258;52.516;13.318;2024-02-26T06:32:39;10.57;;;6.80;;
22184;SDS011;11258;52.516;13.318;2024-02-26T06:35:06;10.37;;;5.97;;
22184;SDS011;11258;52.516;13.318;2024-02-26T06:37:34;10.30;;;5.30;;
22184;SDS011;11258;52.516;13.318;2024-02-26T06:40:00;9.90;;;6.07;;
22184;SDS011;11258;52.516;13.318;2024-02-26T06:42:29;6.97;;;5.00;;
22184;SDS011;11258;52.516;13.318;2024-02-26T06:44:55;9.20;;;5.37;;
22184;SDS011;11258;52.516;13.318;2024-02-26T06:47:21;7.87;;;5.47;;
22184;SDS011;11258;52.516;13.318;2024-02-26T06:49:47;7.67;;;5.27;;
22184;SDS011;11258;52.516;13.318;2024-02-26T06:52:13;8.27;;;5.18;;
22184;SDS011;11258;52.516;13.318;2024-02-26T06:54:39;10.98;;;5.90;;
22184;SDS011;11258;52.516;13.318;2024-02-26T06:57:05;10.00;;;6.63;;
22184;SDS011;11258;52.516;13.318;2024-02-26T06:59:31;12.90;;;7.03;;
22184;SDS011;11258;52.516;13.318;2024-02-26T07:01:57;8.35;;;6.22;;
22184;SDS011;11258;52.516;13.318;2024-02-26T07:04:23;13.05;;;6.65;;
22184;SDS011;11258;52.516;13.318;2024-02-26T07:06:49;8.48;;;5.55;;
22184;SDS011;11258;52.516;13.318;2024-02-26T07:09:15;8.25;;;6.03;;
22184;SDS011;11258;52.516;13.318;2024-02-26T07:11:41;18.98;;;6.28;;
22184;SDS011;11258;52.516;13.318;2024-02-26T07:14:08;10.32;;;6.22;;
22184;SDS011;11258;52.516;13.318;2024-02-26T07:16:35;11.65;;;6.75;;
22184;SDS011;11258;52.516;13.318;2024-02-26T07:19:00;10.50;;;6.53;;
22184;SDS011;11258;52.516;13.318;2024-02-26T07:21:27;11.02;;;6.35;;
22184;SDS011;11258;52.516;13.318;2024-02-26T07:23:53;10.48;;;6.75;;
22184;SDS011;11258;52.516;13.318;2024-02-26T07:26:19;13.75;;;7.38;;
22184;SDS011;11258;52.516;13.318;2024-02-26T07:28:45;12.25;;;7.07;;
22184;SDS011;11258;52.516;13.318;2024-02-26T07:31:11;9.45;;;6.32;;
22184;SDS011;11258;52.516;13.318;2024-02-26T07:33:37;9.57;;;6.22;;
22184;SDS011;11258;52.516;13.318;2024-02-26T07:36:04;11.18;;;7.28;;
22184;SDS011;11258;52.516;13.318;2024-02-26T07:38:30;13.90;;;6.78;;
22184;SDS011;11258;52.516;13.318;2024-02-26T07:40:56;32.13;;;19.23;;
22184;SDS011;11258;52.516;13.318;2024-02-26T07:43:22;13.80;;;7.90;;
22184;SDS011;11258;52.516;13.318;2024-02-26T07:45:48;10.02;;;7.28;;
22184;SDS011;11258;52.516;13.318;2024-02-26T07:48:14;10.37;;;7.03;;
22184;SDS011;11258;52.516;13.318;2024-02-26T07:50:40;11.40;;;7.27;;
22184;SDS011;11258;52.516;13.318;2024-02-26T07:53:06;12.53;;;8.03;;
22184;SDS011;11258;52.516;13.318;2024-02-26T07:55:32;11.40;;;6.53;;
22184;SDS011;11258;52.516;13.318;2024-02-26T07:57:58;12.03;;;7.10;;
22184;SDS011;11258;52.516;13.318;2024-02-26T08:00:25;11.30;;;7.63;;
22184;SDS011;11258;52.516;13.318;2024-02-26T08:02:51;9.87;;;7.30;;
22184;SDS011;11258;52.516;13.318;2024-02-26T08:05:17;15.73;;;8.00;;
22184;SDS011;11258;52.516;13.318;2024-02-26T08:07:43;13.40;;;7.30;;
22184;SDS011;11258;52.516;13.318;2024-02-26T08:10:09;12.63;;;7.93;;
22184;SDS011;11258;52.516;13.318;2024-02-26T08:12:36;13.77;;;7.77;;
22184;SDS011;11258;52.516;13.318;2024-02-26T08:15:02;12.40;;;8.00;;
22184;SDS011;11258;52.516;13.318;2024-02-26T08:17:28;14.63;;;7.83;;
22184;SDS011;11258;52.516;13.318;2024-02-26T08:19:54;12.60;;;7.77;;
22184;SDS011;11258;52.516;13.318;2024-02-26T08:22:22;12.70;;;7.20;;
22184;SDS011;11258;52.516;13.318;2024-02-26T08:24:48;12.00;;;8.10;;
22184;SDS011;11258;52.516;13.318;2024-02-26T08:27:14;14.67;;;8.17;;
22184;SDS011;11258;52.516;13.318;2024-02-26T08:29:40;12.43;;;8.17;;
22184;SDS011;11258;52.516;13.318;2024-02-26T08:32:06;10.27;;;6.80;;
22184;SDS011;11258;52.516;13.318;2024-02-26T08:34:32;15.63;;;9.13;;
22184;SDS011;11258;52.516;13.318;2024-02-26T08:36:58;11.57;;;7.97;;
22184;SDS011;11258;52.516;13.318;2024-02-26T08:39:24;23.17;;;12.27;;
22184;SDS011;11258;52.516;13.318;2024-02-26T08:41:51;14.00;;;8.63;;
22184;SDS011;11258;52.516;13.318;2024-02-26T08:44:17;16.00;;;8.30;;
22184;SDS011;11258;52.516;13.318;2024-02-26T08:46:43;14.30;;;8.47;;
22184;SDS011;11258;52.516;13.318;2024-02-26T08:49:10;16.10;;;8.53;;
22184;SDS011;11258;52.516;13.318;2024-02-26T08:51:41;15.37;;;8.60;;
22184;SDS011;11258;52.516;13.318;2024-02-26T08:54:07;16.57;;;8.57;;
22184;SDS011;11258;52.516;13.318;2024-02-26T08:56:33;13.73;;;9.30;;
22184;SDS011;11258;52.516;13.318;2024-02-26T08:58:59;11.93;;;8.33;;
22184;SDS011;11258;52.516;13.318;2024-02-26T09:01:28;13.63;;;9.50;;
22184;SDS011;11258;52.516;13.318;2024-02-26T09:03:54;13.93;;;9.60;;
22184;SDS011;11258;52.516;13.318;2024-02-26T09:06:21;13.73;;;9.30;;
22184;SDS011;11258;52.516;13.318;2024-02-26T09:08:47;15.43;;;8.83;;
22184;SDS011;11258;52.516;13.318;2024-02-26T09:11:13;12.43;;;8.23;;
22184;SDS011;11258;52.516;13.318;2024-02-26T09:13:39;15.83;;;8.30;;
22184;SDS011;11258;52.516;13.318;2024-02-26T09:16:05;15.10;;;7.77;;
22184;SDS011;11258;52.516;13.318;2024-02-26T09:18:31;15.17;;;8.73;;
22184;SDS011;11258;52.516;13.318;2024-02-26T09:20:57;14.10;;;8.70;;
22184;SDS011;11258;52.516;13.318;2024-02-26T09:23:23;13.37;;;8.70;;
22184;SDS011;11258;52.516;13.318;2024-02-26T09:25:50;15.87;;;8.83;;
22184;SDS011;11258;52.516;13.318;2024-02-26T09:28:16;16.00;;;9.77;;
22184;SDS011;11258;52.516;13.318;2024-02-26T09:30:43;15.30;;;8.53;;
22184;SDS011;11258;52.516;13.318;2024-02-26T09:33:09;16.33;;;8.80;;
22184;SDS011;11258;52.516;13.318;2024-02-26T09:35:35;13.37;;;8.73;;
22184;SDS011;11258;52.516;13.318;2024-02-26T09:38:01;12.67;;;8.70;;
22184;SDS011;11258;52.516;13.318;2024-02-26T09:40:27;12.77;;;8.13;;
22184;SDS011;11258;52.516;13.318;2024-02-26T09:42:56;16.43;;;8.77;;
22184;SDS011;11258;52.516;13.318;2024-02-26T09:45:25;13.90;;;8.00;;
22184;SDS011;11258;52.516;13.318;2024-02-26T09:47:52;15.67;;;8.40;;
22184;SDS011;11258;52.516;13.318;2024-02-26T09:50:20;16.10;;;7.90;;
22184;SDS011;11258;52.516;13.318;2024-02-26T09:52:47;15.67;;;8.60;;
22184;SDS011;11258;52.516;13.318;2024-02-26T09:55:14;12.87;;;7.57;;
22184;SDS011;11258;52.516;13.318;2024-02-26T09:57:42;15.00;;;8.50;;
22184;SDS011;11258;52.516;13.318;2024-02-26T10:00:10;13.43;;;7.90;;
22184;SDS011;11258;52.516;13.318;2024-02-26T10:02:40;16.47;;;9.30;;
22184;SDS011;11258;52.516;13.318;2024-02-26T10:05:06;15.80;;;8.27;;
22184;SDS011;11258;52.516;13.318;2024-02-26T10:07:33;12.03;;;7.10;;
22184;SDS011;11258;52.516;13.318;2024-02-26T10:10:00;15.40;;;8.57;;
22184;SDS011;11258;52.516;13.318;2024-02-26T10:12:26;11.13;;;7.20;;
22184;SDS011;11258;52.516;13.318;2024-02-26T10:14:53;13.67;;;8.97;;
22184;SDS011;11258;52.516;13.318;2024-02-26T10:17:19;13.67;;;8.80;;
22184;SDS011;11258;52.516;13.318;2024-02-26T10:19:45;15.37;;;8.30;;
22184;SDS011;11258;52.516;13.318;2024-02-26T10:22:11;13.93;;;8.87;;
22184;SDS011;11258;52.516;13.318;2024-02-26T10:24:37;14.77;;;8.10;;
22184;SDS011;11258;52.516;13.318;2024-02-26T10:27:03;15.23;;;8.17;;
22184;SDS011;11258;52.516;13.318;2024-02-26T10:29:30;18.53;;;7.97;;
22184;SDS011;11258;52.516;13.318;2024-02-26T10:31:56;12.83;;;7.70;;
22184;SDS011;11258;52.516;13.318;2024-02-26T10:34:22;10.60;;;7.43;;
22184;SDS011;11258;52.516;13.318;2024-02-26T10:36:49;27.07;;;14.97;;
22184;SDS011;11258;52.516;13.318;2024-02-26T10:39:15;12.27;;;8.13;;
22184;SDS011;11258;52.516;13.318;2024-02-26T10:41:42;10.70;;;6.80;;
22184;SDS011;11258;52.516;13.318;2024-02-26T10:44:12;11.37;;;6.80;;
22184;SDS011;11258;52.516;13.318;2024-02-26T10:46:38;11.33;;;7.37;;
22184;SDS011;11258;52.516;13.318;2024-02-26T10:49:08;13.73;;;7.83;;
22184;SDS011;11258;52.516;13.318;2024-02-26T10:51:38;11.17;;;6.87;;
22184;SDS011;11258;52.516;13.318;2024-02-26T10:54:04;10.37;;;6.50;;
22184;SDS011;11258;52.516;13.318;2024-02-26T10:56:33;11.83;;;6.80;;
22184;SDS011;11258;52.516;13.318;2024-02-26T10:59:02;14.90;;;7.07;;
22184;SDS011;11258;52.516;13.318;2024-02-26T11:01:29;13.40;;;6.97;;
22184;SDS011;11258;52.516;13.318;2024-02-26T11:03:56;14.17;;;7.27;;
22184;SDS011;11258;52.516;13.318;2024-02-26T11:06:22;11.37;;;7.03;;
22184;SDS011;11258;52.516;13.318;2024-02-26T11:08:51;11.00;;;6.60;;
22184;SDS011;11258;52.516;13.318;2024-02-26T11:11:19;10.73;;;6.50;;
22184;SDS011;11258;52.516;13.318;2024-02-26T11:13:46;11.00;;;6.73;;
22184;SDS011;11258;52.516;13.318;2024-02-26T11:16:16;10.00;;;5.67;;
22184;SDS011;11258;52.516;13.318;2024-02-26T11:18:42;11.53;;;6.43;;
22184;SDS011;11258;52.516;13.318;2024-02-26T11:21:08;9.07;;;6.27;;
22184;SDS011;11258;52.516;13.318;2024-02-26T11:23:35;9.40;;;5.33;;
22184;SDS011;11258;52.516;13.318;2024-02-26T11:26:02;7.93;;;5.53;;
22184;SDS011;11258;52.516;13.318;2024-02-26T11:28:29;10.47;;;5.97;;
22184;SDS011;11258;52.516;13.318;2024-02-26T11:30:55;8.00;;;5.00;;
22184;SDS011;11258;52.516;13.318;2024-02-26T11:33:24;9.43;;;6.40;;
22184;SDS011;11258;52.516;13.318;2024-02-26T11:35:50;10.00;;;5.70;;
22184;SDS011;11258;52.516;13.318;2024-02-26T11:38:17;9.70;;;6.80;;
22184;SDS011;11258;52.516;13.318;2024-02-26T11:40:43;10.50;;;6.40;;
22184;SDS011;11258;52.516;13.318;2024-02-26T11:43:09;9.87;;;6.37;;
22184;SDS011;11258;52.516;13.318;2024-02-26T11:48:10;12.67;;;6.33;;
22184;SDS011;11258;52.516;13.318;2024-02-26T11:50:40;9.20;;;5.77;;
22184;SDS011;11258;52.516;13.318;2024-02-26T11:53:23;10.40;;;6.83;;
22184;SDS011;11258;52.516;13.318;2024-02-26T11:58:34;13.37;;;7.97;;
22184;SDS011;11258;52.516;13.318;2024-02-26T12:01:00;11.83;;;7.40;;
22184;SDS011;11258;52.516;13.318;2024-02-26T12:03:28;12.23;;;7.03;;
22184;SDS011;11258;52.516;13.318;2024-02-26T12:05:54;11.45;;;6.75;;
22184;SDS011;11258;52.516;13.318;2024-02-26T12:08:20;11.80;;;7.70;;
22184;SDS011;11258;52.516;13.318;2024-02-26T12:10:48;11.13;;;8.32;;
22184;SDS011;11258;52.516;13.318;2024-02-26T12:13:14;11.07;;;7.13;;
22184;SDS011;11258;52.516;13.318;2024-02-26T12:15:41;11.30;;;7.57;;
22184;SDS011;11258;52.516;13.318;2024-02-26T12:18:09;12.55;;;7.22;;
22184;SDS011;11258;52.516;13.318;2024-02-26T12:20:38;11.40;;;6.53;;
22184;SDS011;11258;52.516;13.318;2024-02-26T12:23:04;11.55;;;7.53;;
22184;SDS011;11258;52.516;13.318;2024-02-26T12:25:31;10.90;;;6.57;;
22184;SDS011;11258;52.516;13.318;2024-02-26T12:27:58;12.52;;;7.70;;
22184;SDS011;11258;52.516;13.318;2024-02-26T12:30:24;11.57;;;7.13;;
22184;SDS011;11258;52.516;13.318;2024-02-26T12:32:51;10.45;;;7.07;;
22184;SDS011;11258;52.516;13.318;2024-02-26T12:35:21;11.32;;;7.47;;
22184;SDS011;11258;52.516;13.318;2024-02-26T12:37:48;10.63;;;6.13;;
22184;SDS011;11258;52.516;13.318;2024-02-26T12:40:14;8.95;;;6.13;;
22184;SDS011;11258;52.516;13.318;2024-02-26T12:42:40;13.43;;;6.70;;
22184;SDS011;11258;52.516;13.318;2024-02-26T12:45:06;11.57;;;7.28;;
22184;SDS011;11258;52.516;13.318;2024-02-26T12:47:44;12.20;;;6.25;;
22184;SDS011;11258;52.516;13.318;2024-02-26T12:50:16;10.88;;;6.50;;
22184;SDS011;11258;52.516;13.318;2024-02-26T12:52:43;14.93;;;7.17;;
22184;SDS011;11258;52.516;13.318;2024-02-26T12:55:10;10.07;;;6.67;;
22184;SDS011;11258;52.516;13.318;2024-02-26T12:57:37;8.83;;;5.63;;
22184;SDS011;11258;52.516;13.318;2024-02-26T13:00:06;10.10;;;5.38;;
22184;SDS011;11258;52.516;13.318;2024-02-26T13:02:34;8.25;;;5.75;;
22184;SDS011;11258;52.516;13.318;2024-02-26T13:05:03;8.90;;;5.90;;
22184;SDS011;11258;52.516;13.318;2024-02-26T13:07:29;9.15;;;5.30;;
22184;SDS011;11258;52.516;13.318;2024-02-26T13:09:55;7.30;;;4.83;;
22184;SDS011;11258;52.516;13.318;2024-02-26T13:12:21;8.00;;;4.95;;
22184;SDS011;11258;52.516;13.318;2024-02-26T13:14:48;7.23;;;3.97;;
22184;SDS011;11258;52.516;13.318;2024-02-26T13:17:23;9.90;;;4.77;;
22184;SDS011;11258;52.516;13.318;2024-02-26T13:19:52;9.20;;;5.17;;
22184;SDS011;11258;52.516;13.318;2024-02-26T13:22:20;9.40;;;5.10;;
22184;SDS011;11258;52.516;13.318;2024-02-26T13:24:53;7.70;;;4.22;;
22184;SDS011;11258;52.516;13.318;2024-02-26T13:27:25;6.85;;;3.97;;
22184;SDS011;11258;52.516;13.318;2024-02-26T13:30:08;9.10;;;4.22;;
22184;SDS011;11258;52.516;13.318;2024-02-26T13:32:39;6.03;;;3.93;;
22184;SDS011;11258;52.516;13.318;2024-02-26T13:35:06;8.40;;;4.10;;
22184;SDS011;11258;52.516;13.318;2024-02-26T13:37:33;6.17;;;3.73;;
22184;SDS011;11258;52.516;13.318;2024-02-26T13:39:59;7.03;;;3.57;;
22184;SDS011;11258;52.516;13.318;2024-02-26T13:42:29;5.33;;;3.23;;
22184;SDS011;11258;52.516;13.318;2024-02-26T13:44:55;7.27;;;3.53;;
22184;SDS011;11258;52.516;13.318;2024-02-26T13:47:21;5.60;;;3.60;;
22184;SDS011;11258;52.516;13.318;2024-02-26T13:49:47;6.90;;;3.37;;
22184;SDS011;11258;52.516;13.318;2024-02-26T13:52:13;2.83;;;2.27;;
22184;SDS011;11258;52.516;13.318;2024-02-26T13:54:39;6.87;;;3.17;;
22184;SDS011;11258;52.516;13.318;2024-02-26T13:57:05;3.60;;;2.93;;
22184;SDS011;11258;52.516;13.318;2024-02-26T13:59:32;4.33;;;2.90;;
22184;SDS011;11258;52.516;13.318;2024-02-26T14:01:58;5.90;;;2.80;;
22184;SDS011;11258;52.516;13.318;2024-02-26T14:04:24;8.65;;;2.80;;
22184;SDS011;11258;52.516;13.318;2024-02-26T14:06:50;4.60;;;2.57;;
22184;SDS011;11258;52.516;13.318;2024-02-26T14:09:16;6.10;;;2.87;;
22184;SDS011;11258;52.516;13.318;2024-02-26T14:11:44;4.83;;;2.97;;
22184;SDS011;11258;52.516;13.318;2024-02-26T14:14:11;5.13;;;2.90;;
22184;SDS011;11258;52.516;13.318;2024-02-26T14:16:37;5.90;;;3.30;;
22184;SDS011;11258;52.516;13.318;2024-02-26T14:19:03;9.80;;;3.43;;
22184;SDS011;11258;52.516;13.318;2024-02-26T14:21:29;6.50;;;3.00;;
22184;SDS011;11258;52.516;13.318;2024-02-26T14:23:56;5.30;;;3.37;;
22184;SDS011;11258;52.516;13.318;2024-02-26T14:26:23;5.53;;;3.30;;
22184;SDS011;11258;52.516;13.318;2024-02-26T14:28:49;6.20;;;3.07;;